sensor_id;sensor_type;location;lat;lon;timestamp;temperature;humidity
56240;DHT22;42154;51.992;5.896;2023-03-05T00:00:18;5.30;99.90
56240;DHT22;42154;51.992;5.896;2023-03-05T00:02:44;5.30;99.90
56240;DHT22;42154;51.992;5.896;2023-03-05T00:05:10;5.30;99.90
56240;DHT22;42154;51.992;5.896;2023-03-05T00:07:36;5.30;99.90
56240;DHT22;42154;51.992;5.896;2023-03-05T00:10:03;5.30;99.90
56240;DHT22;42154;51.992;5.896;2023-03-05T00:12:29;5.30;99.90
56240;DHT22;42154;51.992;5.896;2023-03-05T00:14:55;5.40;99.90
56240;DHT22;42154;51.992;5.896;2023-03-05T00:17:21;5.30;99.90
56240;DHT22;42154;51.992;5.896;2023-03-05T00:19:46;5.30;99.90
56240;DHT22;42154;51.992;5.896;2023-03-05T00:22:12;5.30;99.90
56240;DHT22;42154;51.992;5.896;2023-03-05T00:24:38;5.30;99.90
56240;DHT22;42154;51.992;5.896;2023-03-05T00:27:04;5.30;99.90
56240;DHT22;42154;51.992;5.896;2023-03-05T00:29:30;5.30;99.90
56240;DHT22;42154;51.992;5.896;2023-03-05T00:31:55;5.30;99.90
56240;DHT22;42154;51.992;5.896;2023-03-05T00:34:21;5.30;99.90
56240;DHT22;42154;51.992;5.896;2023-03-05T00:36:51;5.30;99.90
56240;DHT22;42154;51.992;5.896;2023-03-05T00:39:18;5.30;99.90
56240;DHT22;42154;51.992;5.896;2023-03-05T00:41:44;5.30;99.90
56240;DHT22;42154;51.992;5.896;2023-03-05T00:44:11;5.30;99.90
56240;DHT22;42154;51.992;5.896;2023-03-05T00:46:37;5.30;99.90
56240;DHT22;42154;51.992;5.896;2023-03-05T00:49:03;5.30;99.90
56240;DHT22;42154;51.992;5.896;2023-03-05T00:51:29;5.30;99.90
56240;DHT22;42154;51.992;5.896;2023-03-05T00:53:54;5.30;99.90
56240;DHT22;42154;51.992;5.896;2023-03-05T00:56:20;5.30;99.90
56240;DHT22;42154;51.992;5.896;2023-03-05T00:58:46;5.30;99.90
56240;DHT22;42154;51.992;5.896;2023-03-05T01:01:12;5.30;99.90
56240;DHT22;42154;51.992;5.896;2023-03-05T01:03:38;5.20;99.90
56240;DHT22;42154;51.992;5.896;2023-03-05T01:06:07;5.20;99.90
56240;DHT22;42154;51.992;5.896;2023-03-05T01:08:34;5.20;99.90
56240;DHT22;42154;51.992;5.896;2023-03-05T01:11:00;5.20;99.90
56240;DHT22;42154;51.992;5.896;2023-03-05T01:13:26;5.20;99.90
56240;DHT22;42154;51.992;5.896;2023-03-05T01:15:52;5.20;99.90
56240;DHT22;42154;51.992;5.896;2023-03-05T01:18:19;5.20;99.90
56240;DHT22;42154;51.992;5.896;2023-03-05T01:20:45;5.20;99.90
56240;DHT22;42154;51.992;5.896;2023-03-05T01:23:11;5.20;99.90
56240;DHT22;42154;51.992;5.896;2023-03-05T01:25:38;5.20;99.90
56240;DHT22;42154;51.992;5.896;2023-03-05T01:28:04;5.20;99.90
56240;DHT22;42154;51.992;5.896;2023-03-05T01:30:31;5.20;99.90
56240;DHT22;42154;51.992;5.896;2023-03-05T01:32:57;5.20;99.90
56240;DHT22;42154;51.992;5.896;2023-03-05T01:35:24;5.20;99.90
56240;DHT22;42154;51.992;5.896;2023-03-05T01:37:51;5.20;99.90
56240;DHT22;42154;51.992;5.896;2023-03-05T01:40:25;5.20;99.90
56240;DHT22;42154;51.992;5.896;2023-03-05T01:43:00;5.20;99.90
56240;DHT22;42154;51.992;5.896;2023-03-05T01:45:31;5.20;99.90
56240;DHT22;42154;51.992;5.896;2023-03-05T01:47:57;5.20;99.90
56240;DHT22;42154;51.992;5.896;2023-03-05T01:50:24;5.20;99.90
56240;DHT22;42154;51.992;5.896;2023-03-05T01:53:00;5.20;99.90
56240;DHT22;42154;51.992;5.896;2023-03-05T01:55:28;5.20;99.90
56240;DHT22;42154;51.992;5.896;2023-03-05T01:58:03;5.20;99.90
56240;DHT22;42154;51.992;5.896;2023-03-05T02:00:42;5.20;99.90
56240;DHT22;42154;51.992;5.896;2023-03-05T02:03:10;5.20;99.90
56240;DHT22;42154;51.992;5.896;2023-03-05T02:05:38;5.10;99.90
56240;DHT22;42154;51.992;5.896;2023-03-05T02:08:07;5.10;99.90
56240;DHT22;42154;51.992;5.896;2023-03-05T02:10:41;5.10;99.90
56240;DHT22;42154;51.992;5.896;2023-03-05T02:13:13;5.10;99.90
56240;DHT22;42154;51.992;5.896;2023-03-05T02:15:41;5.20;99.90
56240;DHT22;42154;51.992;5.896;2023-03-05T02:18:08;5.10;99.90
56240;DHT22;42154;51.992;5.896;2023-03-05T02:20:49;5.10;99.90
56240;DHT22;42154;51.992;5.896;2023-03-05T02:23:16;5.20;99.90
56240;DHT22;42154;51.992;5.896;2023-03-05T02:25:43;5.10;99.90
56240;DHT22;42154;51.992;5.896;2023-03-05T02:31:01;5.20;99.90
56240;DHT22;42154;51.992;5.896;2023-03-05T02:33:32;5.10;99.90
56240;DHT22;42154;51.992;5.896;2023-03-05T02:35:58;5.10;99.90
56240;DHT22;42154;51.992;5.896;2023-03-05T02:38:23;5.10;99.90
56240;DHT22;42154;51.992;5.896;2023-03-05T02:40:49;5.10;99.90
56240;DHT22;42154;51.992;5.896;2023-03-05T02:43:17;5.10;99.90
56240;DHT22;42154;51.992;5.896;2023-03-05T02:45:42;5.10;99.90
56240;DHT22;42154;51.992;5.896;2023-03-05T02:48:08;5.10;99.90
56240;DHT22;42154;51.992;5.896;2023-03-05T02:50:34;5.10;99.90
56240;DHT22;42154;51.992;5.896;2023-03-05T02:53:01;5.10;99.90
56240;DHT22;42154;51.992;5.896;2023-03-05T02:55:28;5.10;99.90
56240;DHT22;42154;51.992;5.896;2023-03-05T02:57:54;5.10;99.90
56240;DHT22;42154;51.992;5.896;2023-03-05T03:00:21;5.10;99.90
56240;DHT22;42154;51.992;5.896;2023-03-05T03:02:47;5.10;99.90
56240;DHT22;42154;51.992;5.896;2023-03-05T03:05:12;5.10;99.90
56240;DHT22;42154;51.992;5.896;2023-03-05T03:07:38;5.10;99.90
56240;DHT22;42154;51.992;5.896;2023-03-05T03:10:04;5.10;99.90
56240;DHT22;42154;51.992;5.896;2023-03-05T03:12:30;5.10;99.90
56240;DHT22;42154;51.992;5.896;2023-03-05T03:14:56;5.10;99.90
56240;DHT22;42154;51.992;5.896;2023-03-05T03:17:22;5.10;99.90
56240;DHT22;42154;51.992;5.896;2023-03-05T03:19:47;5.10;99.90
56240;DHT22;42154;51.992;5.896;2023-03-05T03:22:15;5.10;99.90
56240;DHT22;42154;51.992;5.896;2023-03-05T03:24:41;5.20;99.90
56240;DHT22;42154;51.992;5.896;2023-03-05T03:27:07;5.10;99.90
56240;DHT22;42154;51.992;5.896;2023-03-05T03:29:34;5.10;99.90
56240;DHT22;42154;51.992;5.896;2023-03-05T03:31:59;5.10;99.90
56240;DHT22;42154;51.992;5.896;2023-03-05T03:34:26;5.10;99.90
56240;DHT22;42154;51.992;5.896;2023-03-05T03:36:51;5.10;99.90
56240;DHT22;42154;51.992;5.896;2023-03-05T03:39:18;5.00;99.90
56240;DHT22;42154;51.992;5.896;2023-03-05T03:41:50;5.10;99.90
56240;DHT22;42154;51.992;5.896;2023-03-05T03:44:17;5.00;99.90
56240;DHT22;42154;51.992;5.896;2023-03-05T03:46:44;5.00;99.90
56240;DHT22;42154;51.992;5.896;2023-03-05T03:49:19;5.00;99.90
56240;DHT22;42154;51.992;5.896;2023-03-05T03:51:45;5.10;99.90
56240;DHT22;42154;51.992;5.896;2023-03-05T03:54:13;5.00;99.90
56240;DHT22;42154;51.992;5.896;2023-03-05T03:56:39;5.10;99.90
56240;DHT22;42154;51.992;5.896;2023-03-05T03:59:05;5.10;99.90
56240;DHT22;42154;51.992;5.896;2023-03-05T04:01:30;5.00;99.90
56240;DHT22;42154;51.992;5.896;2023-03-05T04:03:56;5.00;99.90
56240;DHT22;42154;51.992;5.896;2023-03-05T04:06:22;5.00;99.90
56240;DHT22;42154;51.992;5.896;2023-03-05T04:08:48;5.00;99.90
56240;DHT22;42154;51.992;5.896;2023-03-05T04:11:13;5.00;99.90
56240;DHT22;42154;51.992;5.896;2023-03-05T04:13:40;5.00;99.90
56240;DHT22;42154;51.992;5.896;2023-03-05T04:16:06;5.00;99.90
56240;DHT22;42154;51.992;5.896;2023-03-05T04:18:32;5.00;99.90
56240;DHT22;42154;51.992;5.896;2023-03-05T04:20:58;4.90;99.90
56240;DHT22;42154;51.992;5.896;2023-03-05T04:23:24;5.10;99.90
56240;DHT22;42154;51.992;5.896;2023-03-05T04:25:50;5.00;99.90
56240;DHT22;42154;51.992;5.896;2023-03-05T04:28:15;4.90;99.90
56240;DHT22;42154;51.992;5.896;2023-03-05T04:30:42;4.80;99.90
56240;DHT22;42154;51.992;5.896;2023-03-05T04:33:08;4.80;99.90
56240;DHT22;42154;51.992;5.896;2023-03-05T04:35:34;4.80;99.90
56240;DHT22;42154;51.992;5.896;2023-03-05T04:37:59;4.80;99.90
56240;DHT22;42154;51.992;5.896;2023-03-05T04:40:25;4.80;99.90
56240;DHT22;42154;51.992;5.896;2023-03-05T04:42:51;4.80;99.90
56240;DHT22;42154;51.992;5.896;2023-03-05T04:45:16;4.80;99.90
56240;DHT22;42154;51.992;5.896;2023-03-05T04:47:42;4.80;99.90
56240;DHT22;42154;51.992;5.896;2023-03-05T04:50:10;4.80;99.90
56240;DHT22;42154;51.992;5.896;2023-03-05T04:52:42;4.80;99.90
56240;DHT22;42154;51.992;5.896;2023-03-05T04:55:09;4.80;99.90
56240;DHT22;42154;51.992;5.896;2023-03-05T04:57:35;4.80;99.90
56240;DHT22;42154;51.992;5.896;2023-03-05T05:00:02;4.80;99.90
56240;DHT22;42154;51.992;5.896;2023-03-05T05:02:32;4.80;99.90
56240;DHT22;42154;51.992;5.896;2023-03-05T05:04:57;4.80;99.90
56240;DHT22;42154;51.992;5.896;2023-03-05T05:07:23;4.70;99.90
56240;DHT22;42154;51.992;5.896;2023-03-05T05:09:49;4.80;99.90
56240;DHT22;42154;51.992;5.896;2023-03-05T05:12:15;4.80;99.90
56240;DHT22;42154;51.992;5.896;2023-03-05T05:14:40;4.80;99.90
56240;DHT22;42154;51.992;5.896;2023-03-05T05:17:06;4.80;99.90
56240;DHT22;42154;51.992;5.896;2023-03-05T05:19:33;4.80;99.90
56240;DHT22;42154;51.992;5.896;2023-03-05T05:21:59;4.80;99.90
56240;DHT22;42154;51.992;5.896;2023-03-05T05:24:25;4.80;99.90
56240;DHT22;42154;51.992;5.896;2023-03-05T05:26:53;4.80;99.90
56240;DHT22;42154;51.992;5.896;2023-03-05T05:29:19;4.80;99.90
56240;DHT22;42154;51.992;5.896;2023-03-05T05:31:45;4.80;99.90
56240;DHT22;42154;51.992;5.896;2023-03-05T05:34:11;4.80;99.90
56240;DHT22;42154;51.992;5.896;2023-03-05T05:36:37;4.80;99.90
56240;DHT22;42154;51.992;5.896;2023-03-05T05:39:03;4.80;99.90
56240;DHT22;42154;51.992;5.896;2023-03-05T05:41:28;4.70;99.90
56240;DHT22;42154;51.992;5.896;2023-03-05T05:43:55;4.80;99.90
56240;DHT22;42154;51.992;5.896;2023-03-05T05:46:21;4.80;99.90
56240;DHT22;42154;51.992;5.896;2023-03-05T05:48:47;4.80;99.90
56240;DHT22;42154;51.992;5.896;2023-03-05T05:51:18;4.80;99.90
56240;DHT22;42154;51.992;5.896;2023-03-05T05:53:45;4.80;99.90
56240;DHT22;42154;51.992;5.896;2023-03-05T05:56:12;4.70;99.90
56240;DHT22;42154;51.992;5.896;2023-03-05T05:58:39;4.70;99.90
56240;DHT22;42154;51.992;5.896;2023-03-05T06:01:24;4.70;99.90
56240;DHT22;42154;51.992;5.896;2023-03-05T06:03:51;4.70;99.90
56240;DHT22;42154;51.992;5.896;2023-03-05T06:06:19;4.60;99.90
56240;DHT22;42154;51.992;5.896;2023-03-05T06:08:45;4.60;99.90
56240;DHT22;42154;51.992;5.896;2023-03-05T06:11:12;4.60;99.90
56240;DHT22;42154;51.992;5.896;2023-03-05T06:13:38;4.50;99.90
56240;DHT22;42154;51.992;5.896;2023-03-05T06:16:06;4.60;99.90
56240;DHT22;42154;51.992;5.896;2023-03-05T06:18:33;4.60;99.90
56240;DHT22;42154;51.992;5.896;2023-03-05T06:21:04;4.60;99.90
56240;DHT22;42154;51.992;5.896;2023-03-05T06:23:30;4.60;99.90
56240;DHT22;42154;51.992;5.896;2023-03-05T06:25:58;4.50;99.90
56240;DHT22;42154;51.992;5.896;2023-03-05T06:28:25;4.50;99.90
56240;DHT22;42154;51.992;5.896;2023-03-05T06:33:30;4.60;99.90
56240;DHT22;42154;51.992;5.896;2023-03-05T06:35:56;4.60;99.90
56240;DHT22;42154;51.992;5.896;2023-03-05T06:38:22;4.60;99.90
56240;DHT22;42154;51.992;5.896;2023-03-05T06:40:48;4.70;99.90
56240;DHT22;42154;51.992;5.896;2023-03-05T06:43:14;4.70;99.90
56240;DHT22;42154;51.992;5.896;2023-03-05T06:45:40;4.70;99.90
56240;DHT22;42154;51.992;5.896;2023-03-05T06:48:06;4.70;99.90
56240;DHT22;42154;51.992;5.896;2023-03-05T06:50:35;4.70;99.90
56240;DHT22;42154;51.992;5.896;2023-03-05T06:53:01;4.80;99.90
56240;DHT22;42154;51.992;5.896;2023-03-05T06:55:27;4.80;99.90
56240;DHT22;42154;51.992;5.896;2023-03-05T06:57:53;4.80;99.90
56240;DHT22;42154;51.992;5.896;2023-03-05T07:00:19;4.80;99.90
56240;DHT22;42154;51.992;5.896;2023-03-05T07:02:45;4.80;99.90
56240;DHT22;42154;51.992;5.896;2023-03-05T07:05:11;4.80;99.90
56240;DHT22;42154;51.992;5.896;2023-03-05T07:07:37;4.80;99.90
56240;DHT22;42154;51.992;5.896;2023-03-05T07:10:04;4.90;99.90
56240;DHT22;42154;51.992;5.896;2023-03-05T07:12:32;4.90;99.90
56240;DHT22;42154;51.992;5.896;2023-03-05T07:14:59;5.00;99.90
56240;DHT22;42154;51.992;5.896;2023-03-05T07:17:26;5.00;99.90
56240;DHT22;42154;51.992;5.896;2023-03-05T07:19:51;5.00;99.90
56240;DHT22;42154;51.992;5.896;2023-03-05T07:22:17;5.10;99.90
56240;DHT22;42154;51.992;5.896;2023-03-05T07:24:43;5.10;99.90
56240;DHT22;42154;51.992;5.896;2023-03-05T07:27:08;5.10;99.90
56240;DHT22;42154;51.992;5.896;2023-03-05T07:29:35;5.10;99.90
56240;DHT22;42154;51.992;5.896;2023-03-05T07:32:00;5.10;99.90
56240;DHT22;42154;51.992;5.896;2023-03-05T07:34:26;5.10;99.90
56240;DHT22;42154;51.992;5.896;2023-03-05T07:36:52;5.10;99.90
56240;DHT22;42154;51.992;5.896;2023-03-05T07:39:18;5.20;99.90
56240;DHT22;42154;51.992;5.896;2023-03-05T07:41:45;5.20;99.90
56240;DHT22;42154;51.992;5.896;2023-03-05T07:44:12;5.30;99.90
56240;DHT22;42154;51.992;5.896;2023-03-05T07:46:38;5.30;99.90
56240;DHT22;42154;51.992;5.896;2023-03-05T07:49:04;5.30;99.90
56240;DHT22;42154;51.992;5.896;2023-03-05T07:51:30;5.30;99.90
56240;DHT22;42154;51.992;5.896;2023-03-05T07:53:57;5.30;99.90
56240;DHT22;42154;51.992;5.896;2023-03-05T07:56:28;5.40;99.90
56240;DHT22;42154;51.992;5.896;2023-03-05T07:59:04;5.50;99.90
56240;DHT22;42154;51.992;5.896;2023-03-05T08:01:30;5.50;99.90
56240;DHT22;42154;51.992;5.896;2023-03-05T08:03:56;5.50;99.90
56240;DHT22;42154;51.992;5.896;2023-03-05T08:06:22;5.60;99.90
56240;DHT22;42154;51.992;5.896;2023-03-05T08:08:48;5.60;99.90
56240;DHT22;42154;51.992;5.896;2023-03-05T08:11:15;5.60;99.90
56240;DHT22;42154;51.992;5.896;2023-03-05T08:13:42;5.60;99.90
56240;DHT22;42154;51.992;5.896;2023-03-05T08:16:19;5.50;99.90
56240;DHT22;42154;51.992;5.896;2023-03-05T08:18:46;5.50;99.90
56240;DHT22;42154;51.992;5.896;2023-03-05T08:21:21;5.50;99.90
56240;DHT22;42154;51.992;5.896;2023-03-05T08:23:47;5.40;99.90
56240;DHT22;42154;51.992;5.896;2023-03-05T08:26:15;5.50;99.90
56240;DHT22;42154;51.992;5.896;2023-03-05T08:28:41;5.50;99.90
56240;DHT22;42154;51.992;5.896;2023-03-05T08:31:11;5.60;99.90
56240;DHT22;42154;51.992;5.896;2023-03-05T08:33:37;5.60;99.90
56240;DHT22;42154;51.992;5.896;2023-03-05T08:36:03;5.60;99.90
56240;DHT22;42154;51.992;5.896;2023-03-05T08:38:29;5.70;99.90
56240;DHT22;42154;51.992;5.896;2023-03-05T08:40:55;5.80;99.90
56240;DHT22;42154;51.992;5.896;2023-03-05T08:43:21;5.90;99.90
56240;DHT22;42154;51.992;5.896;2023-03-05T08:45:47;6.00;99.90
56240;DHT22;42154;51.992;5.896;2023-03-05T08:48:14;6.20;99.90
56240;DHT22;42154;51.992;5.896;2023-03-05T08:50:40;6.30;99.90
56240;DHT22;42154;51.992;5.896;2023-03-05T08:53:05;6.40;99.90
56240;DHT22;42154;51.992;5.896;2023-03-05T08:55:31;6.40;99.90
56240;DHT22;42154;51.992;5.896;2023-03-05T08:57:57;6.40;99.90
56240;DHT22;42154;51.992;5.896;2023-03-05T09:00:23;6.40;99.90
56240;DHT22;42154;51.992;5.896;2023-03-05T09:02:48;6.40;99.90
56240;DHT22;42154;51.992;5.896;2023-03-05T09:05:15;6.50;99.90
56240;DHT22;42154;51.992;5.896;2023-03-05T09:07:42;6.40;99.90
56240;DHT22;42154;51.992;5.896;2023-03-05T09:10:08;6.40;99.90
56240;DHT22;42154;51.992;5.896;2023-03-05T09:12:36;6.50;99.90
56240;DHT22;42154;51.992;5.896;2023-03-05T09:15:04;6.50;99.90
56240;DHT22;42154;51.992;5.896;2023-03-05T09:17:32;6.50;99.90
56240;DHT22;42154;51.992;5.896;2023-03-05T09:19:58;6.50;99.90
56240;DHT22;42154;51.992;5.896;2023-03-05T09:22:23;6.60;99.90
56240;DHT22;42154;51.992;5.896;2023-03-05T09:24:49;6.60;99.90
56240;DHT22;42154;51.992;5.896;2023-03-05T09:27:15;6.60;99.90
56240;DHT22;42154;51.992;5.896;2023-03-05T09:29:40;6.60;99.90
56240;DHT22;42154;51.992;5.896;2023-03-05T09:32:06;6.70;99.90
56240;DHT22;42154;51.992;5.896;2023-03-05T09:34:32;6.70;99.90
56240;DHT22;42154;51.992;5.896;2023-03-05T09:36:59;6.80;99.90
56240;DHT22;42154;51.992;5.896;2023-03-05T09:39:25;6.90;99.90
56240;DHT22;42154;51.992;5.896;2023-03-05T09:44:56;7.00;99.90
56240;DHT22;42154;51.992;5.896;2023-03-05T09:50:35;7.10;99.90
56240;DHT22;42154;51.992;5.896;2023-03-05T09:53:38;7.10;99.90
56240;DHT22;42154;51.992;5.896;2023-03-05T09:55:58;7.10;99.90
56240;DHT22;42154;51.992;5.896;2023-03-05T09:58:42;7.10;99.90
56240;DHT22;42154;51.992;5.896;2023-03-05T10:01:29;7.10;99.90
56240;DHT22;42154;51.992;5.896;2023-03-05T10:04:10;7.20;99.90
56240;DHT22;42154;51.992;5.896;2023-03-05T10:06:58;7.20;99.90
56240;DHT22;42154;51.992;5.896;2023-03-05T10:12:06;7.30;99.90
56240;DHT22;42154;51.992;5.896;2023-03-05T10:14:34;7.30;99.90
56240;DHT22;42154;51.992;5.896;2023-03-05T10:22:41;7.40;99.90
56240;DHT22;42154;51.992;5.896;2023-03-05T10:25:40;7.50;99.90
56240;DHT22;42154;51.992;5.896;2023-03-05T10:28:19;7.60;99.90
56240;DHT22;42154;51.992;5.896;2023-03-05T10:33:46;7.50;99.90
56240;DHT22;42154;51.992;5.896;2023-03-05T10:44:45;7.40;99.90
56240;DHT22;42154;51.992;5.896;2023-03-05T10:47:20;7.50;99.90
56240;DHT22;42154;51.992;5.896;2023-03-05T10:49:50;7.50;99.90
56240;DHT22;42154;51.992;5.896;2023-03-05T10:54:50;7.60;99.90
56240;DHT22;42154;51.992;5.896;2023-03-05T10:57:24;7.70;99.90
56240;DHT22;42154;51.992;5.896;2023-03-05T11:00:25;7.70;99.90
56240;DHT22;42154;51.992;5.896;2023-03-05T11:03:02;7.80;99.90
56240;DHT22;42154;51.992;5.896;2023-03-05T11:08:24;7.80;99.90
56240;DHT22;42154;51.992;5.896;2023-03-05T11:13:37;7.80;99.90
56240;DHT22;42154;51.992;5.896;2023-03-05T11:16:09;7.80;99.90
56240;DHT22;42154;51.992;5.896;2023-03-05T11:18:39;7.80;99.90
56240;DHT22;42154;51.992;5.896;2023-03-05T11:24:03;8.20;99.90
56240;DHT22;42154;51.992;5.896;2023-03-05T11:26:29;8.40;99.90
56240;DHT22;42154;51.992;5.896;2023-03-05T11:28:58;8.40;99.90
56240;DHT22;42154;51.992;5.896;2023-03-05T11:31:30;8.50;99.90
56240;DHT22;42154;51.992;5.896;2023-03-05T11:36:34;8.30;99.90
56240;DHT22;42154;51.992;5.896;2023-03-05T11:41:48;8.40;99.90
56240;DHT22;42154;51.992;5.896;2023-03-05T11:46:58;8.30;99.90
56240;DHT22;42154;51.992;5.896;2023-03-05T11:49:27;8.30;99.90
56240;DHT22;42154;51.992;5.896;2023-03-05T11:51:59;8.30;99.90
56240;DHT22;42154;51.992;5.896;2023-03-05T11:57:11;8.20;99.90
56240;DHT22;42154;51.992;5.896;2023-03-05T11:59:38;8.00;99.90
56240;DHT22;42154;51.992;5.896;2023-03-05T12:02:18;8.00;99.90
56240;DHT22;42154;51.992;5.896;2023-03-05T12:04:45;8.00;99.90
56240;DHT22;42154;51.992;5.896;2023-03-05T12:07:14;7.90;99.90
56240;DHT22;42154;51.992;5.896;2023-03-05T12:09:46;7.90;99.90
56240;DHT22;42154;51.992;5.896;2023-03-05T12:23:09;7.80;99.90
56240;DHT22;42154;51.992;5.896;2023-03-05T12:25:54;7.80;99.90
56240;DHT22;42154;51.992;5.896;2023-03-05T12:30:55;7.80;99.90
56240;DHT22;42154;51.992;5.896;2023-03-05T12:33:41;7.90;99.90
56240;DHT22;42154;51.992;5.896;2023-03-05T12:44:17;7.70;99.90
56240;DHT22;42154;51.992;5.896;2023-03-05T12:49:40;7.70;99.90
56240;DHT22;42154;51.992;5.896;2023-03-05T12:52:22;7.70;99.90
56240;DHT22;42154;51.992;5.896;2023-03-05T12:55:18;7.70;99.90
56240;DHT22;42154;51.992;5.896;2023-03-05T12:57:49;7.80;99.90
56240;DHT22;42154;51.992;5.896;2023-03-05T13:00:36;7.70;99.90
56240;DHT22;42154;51.992;5.896;2023-03-05T13:03:10;7.70;99.90
56240;DHT22;42154;51.992;5.896;2023-03-05T13:05:47;7.70;99.90
56240;DHT22;42154;51.992;5.896;2023-03-05T13:10:59;7.80;99.90
56240;DHT22;42154;51.992;5.896;2023-03-05T13:13:28;7.80;99.90
56240;DHT22;42154;51.992;5.896;2023-03-05T13:15:55;7.80;99.90
56240;DHT22;42154;51.992;5.896;2023-03-05T13:18:26;7.80;99.90
56240;DHT22;42154;51.992;5.896;2023-03-05T13:21:07;7.90;99.90
56240;DHT22;42154;51.992;5.896;2023-03-05T13:23:37;7.90;99.90
56240;DHT22;42154;51.992;5.896;2023-03-05T13:26:18;7.90;99.90
56240;DHT22;42154;51.992;5.896;2023-03-05T13:31:29;7.90;99.90
56240;DHT22;42154;51.992;5.896;2023-03-05T13:33:56;7.90;99.90
56240;DHT22;42154;51.992;5.896;2023-03-05T13:36:24;7.90;99.90
56240;DHT22;42154;51.992;5.896;2023-03-05T13:38:51;7.90;99.90
56240;DHT22;42154;51.992;5.896;2023-03-05T13:41:26;7.90;99.90
56240;DHT22;42154;51.992;5.896;2023-03-05T13:43:57;7.80;99.90
56240;DHT22;42154;51.992;5.896;2023-03-05T13:46:34;7.80;99.90
56240;DHT22;42154;51.992;5.896;2023-03-05T13:49:23;7.80;99.90
56240;DHT22;42154;51.992;5.896;2023-03-05T13:51:52;7.90;99.90
56240;DHT22;42154;51.992;5.896;2023-03-05T13:54:20;7.90;99.90
56240;DHT22;42154;51.992;5.896;2023-03-05T13:56:53;7.90;99.90
56240;DHT22;42154;51.992;5.896;2023-03-05T13:59:22;8.10;99.90
56240;DHT22;42154;51.992;5.896;2023-03-05T14:01:50;8.10;99.90
56240;DHT22;42154;51.992;5.896;2023-03-05T14:04:20;8.20;99.90
56240;DHT22;42154;51.992;5.896;2023-03-05T14:07:02;8.20;99.90
56240;DHT22;42154;51.992;5.896;2023-03-05T14:12:05;8.30;99.90
56240;DHT22;42154;51.992;5.896;2023-03-05T14:14:36;8.30;99.90
56240;DHT22;42154;51.992;5.896;2023-03-05T14:17:38;8.40;99.90
56240;DHT22;42154;51.992;5.896;2023-03-05T14:20:23;8.40;99.90
56240;DHT22;42154;51.992;5.896;2023-03-05T14:22:52;8.40;99.90
56240;DHT22;42154;51.992;5.896;2023-03-05T14:25:38;8.40;99.90
56240;DHT22;42154;51.992;5.896;2023-03-05T14:28:26;8.40;99.90
56240;DHT22;42154;51.992;5.896;2023-03-05T14:30:53;8.50;99.90
56240;DHT22;42154;51.992;5.896;2023-03-05T14:33:25;8.50;99.90
56240;DHT22;42154;51.992;5.896;2023-03-05T14:35:52;8.50;99.90
56240;DHT22;42154;51.992;5.896;2023-03-05T14:38:24;8.50;99.90
56240;DHT22;42154;51.992;5.896;2023-03-05T14:40:51;8.50;99.90
56240;DHT22;42154;51.992;5.896;2023-03-05T14:43:17;8.50;99.90
56240;DHT22;42154;51.992;5.896;2023-03-05T14:45:42;8.50;99.90
56240;DHT22;42154;51.992;5.896;2023-03-05T14:48:11;8.60;99.90
56240;DHT22;42154;51.992;5.896;2023-03-05T14:50:46;8.60;99.90
56240;DHT22;42154;51.992;5.896;2023-03-05T14:53:19;8.60;99.90
56240;DHT22;42154;51.992;5.896;2023-03-05T14:55:52;8.50;99.90
56240;DHT22;42154;51.992;5.896;2023-03-05T14:58:24;8.60;99.80
56240;DHT22;42154;51.992;5.896;2023-03-05T15:00:51;8.60;99.20
56240;DHT22;42154;51.992;5.896;2023-03-05T15:03:18;8.50;99.00
56240;DHT22;42154;51.992;5.896;2023-03-05T15:05:47;8.60;99.30
56240;DHT22;42154;51.992;5.896;2023-03-05T15:08:19;8.60;99.40
56240;DHT22;42154;51.992;5.896;2023-03-05T15:10:45;8.60;99.40
56240;DHT22;42154;51.992;5.896;2023-03-05T15:13:13;8.50;99.30
56240;DHT22;42154;51.992;5.896;2023-03-05T15:15:40;8.50;98.90
56240;DHT22;42154;51.992;5.896;2023-03-05T15:18:08;8.40;99.20
56240;DHT22;42154;51.992;5.896;2023-03-05T15:20:34;8.50;99.50
56240;DHT22;42154;51.992;5.896;2023-03-05T15:23:00;8.40;99.20
56240;DHT22;42154;51.992;5.896;2023-03-05T15:25:27;8.40;99.00
56240;DHT22;42154;51.992;5.896;2023-03-05T15:27:54;8.40;99.00
56240;DHT22;42154;51.992;5.896;2023-03-05T15:32:50;8.30;99.10
56240;DHT22;42154;51.992;5.896;2023-03-05T15:35:16;8.30;99.10
56240;DHT22;42154;51.992;5.896;2023-03-05T15:37:41;8.30;99.20
56240;DHT22;42154;51.992;5.896;2023-03-05T15:40:08;8.30;99.10
56240;DHT22;42154;51.992;5.896;2023-03-05T15:42:34;8.30;99.00
56240;DHT22;42154;51.992;5.896;2023-03-05T15:44:59;8.30;99.20
56240;DHT22;42154;51.992;5.896;2023-03-05T15:47:25;8.30;99.30
56240;DHT22;42154;51.992;5.896;2023-03-05T15:49:51;8.30;99.20
56240;DHT22;42154;51.992;5.896;2023-03-05T15:52:16;8.20;99.20
56240;DHT22;42154;51.992;5.896;2023-03-05T15:54:42;8.20;99.60
56240;DHT22;42154;51.992;5.896;2023-03-05T15:57:09;8.20;99.80
56240;DHT22;42154;51.992;5.896;2023-03-05T15:59:36;8.20;99.90
56240;DHT22;42154;51.992;5.896;2023-03-05T16:02:02;8.10;99.90
56240;DHT22;42154;51.992;5.896;2023-03-05T16:04:27;8.10;99.90
56240;DHT22;42154;51.992;5.896;2023-03-05T16:06:54;8.10;99.90
56240;DHT22;42154;51.992;5.896;2023-03-05T16:09:25;8.10;99.90
56240;DHT22;42154;51.992;5.896;2023-03-05T16:11:54;8.00;99.90
56240;DHT22;42154;51.992;5.896;2023-03-05T16:14:22;8.00;99.90
56240;DHT22;42154;51.992;5.896;2023-03-05T16:16:49;8.00;99.90
56240;DHT22;42154;51.992;5.896;2023-03-05T16:19:17;7.90;99.90
56240;DHT22;42154;51.992;5.896;2023-03-05T16:21:44;7.90;99.90
56240;DHT22;42154;51.992;5.896;2023-03-05T16:24:10;7.90;99.90
56240;DHT22;42154;51.992;5.896;2023-03-05T16:26:37;7.90;99.90
56240;DHT22;42154;51.992;5.896;2023-03-05T16:29:04;7.80;99.90
56240;DHT22;42154;51.992;5.896;2023-03-05T16:31:31;7.80;99.90
56240;DHT22;42154;51.992;5.896;2023-03-05T16:33:59;7.80;99.90
56240;DHT22;42154;51.992;5.896;2023-03-05T16:36:26;7.80;99.90
56240;DHT22;42154;51.992;5.896;2023-03-05T16:38:55;7.70;99.90
56240;DHT22;42154;51.992;5.896;2023-03-05T16:41:21;7.70;99.90
56240;DHT22;42154;51.992;5.896;2023-03-05T16:43:48;7.70;99.90
56240;DHT22;42154;51.992;5.896;2023-03-05T16:46:15;7.70;99.90
56240;DHT22;42154;51.992;5.896;2023-03-05T16:48:42;7.60;99.90
56240;DHT22;42154;51.992;5.896;2023-03-05T16:51:09;7.50;99.90
56240;DHT22;42154;51.992;5.896;2023-03-05T16:53:35;7.50;99.90
56240;DHT22;42154;51.992;5.896;2023-03-05T16:56:02;7.30;99.90
56240;DHT22;42154;51.992;5.896;2023-03-05T16:58:29;7.20;99.90
56240;DHT22;42154;51.992;5.896;2023-03-05T17:00:55;7.10;99.90
56240;DHT22;42154;51.992;5.896;2023-03-05T17:03:21;7.00;99.90
56240;DHT22;42154;51.992;5.896;2023-03-05T17:05:47;7.00;99.90
56240;DHT22;42154;51.992;5.896;2023-03-05T17:08:13;6.90;99.90
56240;DHT22;42154;51.992;5.896;2023-03-05T17:10:41;6.80;99.90
56240;DHT22;42154;51.992;5.896;2023-03-05T17:13:07;6.80;99.90
56240;DHT22;42154;51.992;5.896;2023-03-05T17:15:33;6.80;99.90
56240;DHT22;42154;51.992;5.896;2023-03-05T17:17:59;6.70;99.90
56240;DHT22;42154;51.992;5.896;2023-03-05T17:20:25;6.80;99.90